createdAt,value
2018-08-13T00:01:48.715Z,19.90
2018-08-13T00:04:16.236Z,19.90
2018-08-13T00:06:43.786Z,20.00
2018-08-13T00:09:11.408Z,20.00
2018-08-13T00:11:38.972Z,20.10
2018-08-13T00:14:06.572Z,20.00
2018-08-13T00:16:34.112Z,20.00
2018-08-13T00:19:01.663Z,20.20
2018-08-13T00:21:29.238Z,20.20
2018-08-13T00:23:56.766Z,20.10
2018-08-13T00:26:24.268Z,20.20
2018-08-13T00:28:51.845Z,20.10
2018-08-13T00:31:19.400Z,20.20
2018-08-13T00:33:46.945Z,20.10
2018-08-13T00:36:14.461Z,20.00
2018-08-13T00:38:41.933Z,20.10
2018-08-13T00:41:09.442Z,20.10
2018-08-13T00:43:36.976Z,20.20
2018-08-13T00:46:04.568Z,20.10
2018-08-13T00:48:32.171Z,20.10
2018-08-13T00:50:59.712Z,20.10
2018-08-13T00:53:27.268Z,20.10
2018-08-13T00:55:54.828Z,20.10
2018-08-13T00:58:22.382Z,20.10
2018-08-13T01:00:49.944Z,20.10
2018-08-13T01:03:17.547Z,20.10
2018-08-13T01:05:45.103Z,20.10
2018-08-13T01:08:12.649Z,20.10
2018-08-13T01:10:40.270Z,20.00
2018-08-13T01:13:07.857Z,20.00
2018-08-13T01:15:35.391Z,20.10
2018-08-13T01:18:03.022Z,20.20
2018-08-13T01:20:30.546Z,20.10
2018-08-13T01:22:58.053Z,20.20
2018-08-13T01:25:25.550Z,20.10
2018-08-13T01:27:53.021Z,20.00
2018-08-13T01:30:20.569Z,20.00
2018-08-13T01:32:48.109Z,20.00
2018-08-13T01:35:15.712Z,20.00
2018-08-13T01:37:43.204Z,20.00
2018-08-13T01:40:11.606Z,20.00
2018-08-13T01:42:39.210Z,19.90
2018-08-13T01:45:09.268Z,19.80
2018-08-13T01:47:36.813Z,19.80
2018-08-13T01:50:06.383Z,19.90
2018-08-13T01:52:34.047Z,19.90
2018-08-13T01:55:01.548Z,19.90
2018-08-13T01:57:29.083Z,19.80
2018-08-13T01:59:56.649Z,19.80
2018-08-13T02:02:24.214Z,19.80
2018-08-13T02:04:51.733Z,19.80
2018-08-13T02:07:19.242Z,19.70
2018-08-13T02:09:46.789Z,19.70
2018-08-13T02:12:14.375Z,19.70
2018-08-13T02:14:41.902Z,19.70
2018-08-13T02:17:09.400Z,19.60
2018-08-13T02:19:36.999Z,19.60
2018-08-13T02:22:04.637Z,19.60
2018-08-13T02:24:38.807Z,19.60
2018-08-13T02:27:06.384Z,19.60
2018-08-13T02:29:33.897Z,19.60
2018-08-13T02:32:01.433Z,19.70
2018-08-13T02:34:29.001Z,19.80
2018-08-13T02:36:56.554Z,19.80
2018-08-13T02:39:24.136Z,19.90
2018-08-13T02:41:51.676Z,19.80
2018-08-13T02:44:19.211Z,19.80
2018-08-13T02:46:46.730Z,19.70
2018-08-13T02:49:14.401Z,19.60
2018-08-13T02:51:41.983Z,19.60
2018-08-13T02:54:09.592Z,19.70
2018-08-13T02:56:37.154Z,19.60
2018-08-13T02:59:04.731Z,19.50
2018-08-13T03:01:32.326Z,19.40
2018-08-13T03:03:59.951Z,19.30
2018-08-13T03:06:27.553Z,19.30
2018-08-13T03:08:55.104Z,19.30
2018-08-13T03:11:22.700Z,19.20
2018-08-13T03:13:50.736Z,19.20
2018-08-13T03:16:18.917Z,19.30
2018-08-13T03:18:46.502Z,19.30
2018-08-13T03:21:14.115Z,19.30
2018-08-13T03:23:41.653Z,19.20
2018-08-13T03:26:09.330Z,19.10
2018-08-13T03:28:36.896Z,19.20
2018-08-13T03:31:04.484Z,19.20
2018-08-13T03:33:32.169Z,19.20
2018-08-13T03:35:59.864Z,19.30
2018-08-13T03:38:27.384Z,19.30
2018-08-13T03:40:54.887Z,19.30
2018-08-13T03:43:22.648Z,19.40
2018-08-13T03:45:50.211Z,19.40
2018-08-13T03:48:17.740Z,19.30
2018-08-13T03:50:45.223Z,19.30
2018-08-13T03:53:12.810Z,19.30
2018-08-13T03:55:40.364Z,19.30
2018-08-13T03:58:07.932Z,19.30
2018-08-13T04:00:35.467Z,19.30
2018-08-13T04:03:03.054Z,19.20
2018-08-13T04:05:30.585Z,19.30
2018-08-13T04:07:58.164Z,19.30
2018-08-13T04:10:25.684Z,19.30
2018-08-13T04:12:53.222Z,19.20
2018-08-13T04:15:20.692Z,19.20
2018-08-13T04:17:48.226Z,19.20
2018-08-13T04:20:15.855Z,19.10
2018-08-13T04:22:43.916Z,19.10
2018-08-13T04:25:11.404Z,19.00
2018-08-13T04:27:39.987Z,18.90
2018-08-13T04:30:13.057Z,18.90
2018-08-13T04:32:41.202Z,18.80
2018-08-13T04:35:08.746Z,18.80
2018-08-13T04:37:36.296Z,18.80
2018-08-13T04:40:06.861Z,18.70
2018-08-13T04:42:34.359Z,18.80
2018-08-13T04:45:01.893Z,18.70
2018-08-13T04:47:29.392Z,18.60
2018-08-13T04:49:56.912Z,18.60
2018-08-13T04:52:24.484Z,18.50
2018-08-13T04:54:51.974Z,18.40
2018-08-13T04:57:19.480Z,18.40
2018-08-13T04:59:47.039Z,18.30
2018-08-13T05:02:14.543Z,18.30
2018-08-13T05:04:42.037Z,18.40
2018-08-13T05:07:09.590Z,18.40
2018-08-13T05:09:37.152Z,18.40
2018-08-13T05:12:04.668Z,18.40
2018-08-13T05:14:32.161Z,18.40
2018-08-13T05:16:59.713Z,18.40
2018-08-13T05:19:27.219Z,18.40
2018-08-13T05:21:54.782Z,18.50
2018-08-13T05:24:22.255Z,18.60
2018-08-13T05:26:49.752Z,18.60
2018-08-13T05:29:17.274Z,18.60
2018-08-13T05:31:44.756Z,18.70
2018-08-13T05:34:12.301Z,18.70
2018-08-13T05:36:39.875Z,18.70
2018-08-13T05:39:09.853Z,18.80
2018-08-13T05:41:37.484Z,18.70
2018-08-13T05:44:05.093Z,18.70
2018-08-13T05:46:32.807Z,18.70
2018-08-13T05:49:00.792Z,18.70
2018-08-13T05:51:28.314Z,18.70
2018-08-13T05:53:55.901Z,18.70
2018-08-13T05:56:23.457Z,18.70
2018-08-13T05:58:51.133Z,18.70
2018-08-13T06:01:18.687Z,18.80
2018-08-13T06:03:46.372Z,18.80
2018-08-13T06:06:14.233Z,18.80
2018-08-13T06:08:41.819Z,18.70
2018-08-13T06:11:09.688Z,18.80
2018-08-13T06:13:37.144Z,18.80
2018-08-13T06:16:04.732Z,18.80
2018-08-13T06:18:32.444Z,18.80
2018-08-13T06:21:00.211Z,18.80
2018-08-13T06:23:28.499Z,18.80
2018-08-13T06:25:56.181Z,18.80
2018-08-13T06:28:23.724Z,18.70
2018-08-13T06:30:51.334Z,18.70
2018-08-13T06:33:19.031Z,18.80
2018-08-13T06:35:46.649Z,18.80
2018-08-13T06:38:14.171Z,18.80
2018-08-13T06:40:41.765Z,18.80
2018-08-13T06:43:09.385Z,18.90
2018-08-13T06:45:36.924Z,18.90
2018-08-13T06:48:04.931Z,18.90
2018-08-13T06:50:32.605Z,19.00
2018-08-13T06:53:00.244Z,19.00
2018-08-13T06:55:28.080Z,19.00
2018-08-13T06:57:55.667Z,19.00
2018-08-13T07:00:23.233Z,19.00
2018-08-13T07:02:50.811Z,19.00
2018-08-13T07:05:18.471Z,19.10
2018-08-13T07:07:46.163Z,19.00
2018-08-13T07:10:14.687Z,19.00
2018-08-13T07:12:46.646Z,19.00
2018-08-13T07:15:15.147Z,19.00
2018-08-13T07:17:42.741Z,19.10
2018-08-13T07:20:14.996Z,19.10
2018-08-13T07:22:43.154Z,19.20
2018-08-13T07:25:10.694Z,19.40
2018-08-13T07:27:39.215Z,19.50
2018-08-13T07:30:09.143Z,19.60
2018-08-13T07:32:36.837Z,19.60
2018-08-13T07:35:04.472Z,19.70
2018-08-13T07:37:32.073Z,19.80
2018-08-13T07:39:59.619Z,19.80
2018-08-13T07:42:27.169Z,19.80
2018-08-13T07:44:54.843Z,19.90
2018-08-13T07:47:22.396Z,20.00
2018-08-13T07:49:50.256Z,20.00
2018-08-13T07:52:17.765Z,20.00
2018-08-13T07:54:45.348Z,20.00
2018-08-13T07:57:12.891Z,19.80
2018-08-13T07:59:40.406Z,19.70
2018-08-13T08:02:07.956Z,19.70
2018-08-13T08:04:35.494Z,19.70
2018-08-13T08:07:03.056Z,19.60
2018-08-13T08:09:30.532Z,19.60
2018-08-13T08:11:58.116Z,19.50
2018-08-13T08:14:25.685Z,19.50
2018-08-13T08:16:53.221Z,19.40
2018-08-13T08:19:20.779Z,19.30
2018-08-13T08:21:48.354Z,19.20
2018-08-13T08:24:15.937Z,19.20
2018-08-13T08:26:43.508Z,19.20
2018-08-13T08:29:11.128Z,19.30
2018-08-13T08:31:38.764Z,19.40
2018-08-13T08:34:06.964Z,19.30
2018-08-13T08:36:34.508Z,19.30
2018-08-13T08:39:02.138Z,19.30
2018-08-13T08:41:29.698Z,19.30
2018-08-13T08:43:57.200Z,19.50
2018-08-13T08:46:24.786Z,19.50
2018-08-13T08:48:52.374Z,19.70
2018-08-13T08:51:19.915Z,19.90
2018-08-13T08:53:47.451Z,20.00
2018-08-13T08:56:14.969Z,20.10
2018-08-13T08:58:42.468Z,20.30
2018-08-13T09:01:09.972Z,20.50
2018-08-13T09:03:37.512Z,20.60
2018-08-13T09:06:05.101Z,20.50
2018-08-13T09:08:32.644Z,20.50
2018-08-13T09:11:00.237Z,20.50
2018-08-13T09:13:28.760Z,20.70
2018-08-13T09:15:56.322Z,20.70
2018-08-13T09:18:35.041Z,20.80
2018-08-13T09:21:13.886Z,21.00
2018-08-13T09:23:52.811Z,20.90
2018-08-13T09:26:31.698Z,21.00
2018-08-13T09:29:10.626Z,21.00
2018-08-13T09:32:34.463Z,20.90
2018-08-13T09:35:16.923Z,20.90
2018-08-13T09:37:44.629Z,20.80
2018-08-13T09:40:12.175Z,20.70
2018-08-13T09:42:39.674Z,20.60
2018-08-13T09:45:07.748Z,20.70
2018-08-13T09:47:35.524Z,21.10
2018-08-13T09:50:04.268Z,21.30
2018-08-13T09:52:31.795Z,21.50
2018-08-13T09:54:59.337Z,21.50
2018-08-13T09:57:26.873Z,21.60
2018-08-13T09:59:54.469Z,21.60
2018-08-13T10:02:22.017Z,21.70
2018-08-13T10:04:49.556Z,21.80
2018-08-13T10:07:17.163Z,22.10
2018-08-13T10:09:44.697Z,21.90
2018-08-13T10:12:12.170Z,21.70
2018-08-13T10:14:39.820Z,21.50
2018-08-13T10:17:07.467Z,21.40
2018-08-13T10:19:35.029Z,21.20
2018-08-13T10:22:02.608Z,20.90
2018-08-13T10:24:30.091Z,20.90
2018-08-13T10:26:57.624Z,21.00
2018-08-13T10:29:25.191Z,21.10
2018-08-13T10:31:52.741Z,21.20
2018-08-13T10:34:20.251Z,21.30
2018-08-13T10:36:47.828Z,21.30
2018-08-13T10:39:15.389Z,21.40
2018-08-13T10:41:42.946Z,21.40
2018-08-13T10:44:10.464Z,21.40
2018-08-13T10:46:38.109Z,21.50
2018-08-13T10:49:05.660Z,21.60
2018-08-13T10:51:33.284Z,21.70
2018-08-13T10:54:01.137Z,21.70
2018-08-13T10:56:28.957Z,21.80
2018-08-13T10:58:56.709Z,21.80
2018-08-13T11:01:24.231Z,21.90
2018-08-13T11:03:51.881Z,22.00
2018-08-13T11:06:19.461Z,22.00
2018-08-13T11:08:46.967Z,22.10
2018-08-13T11:11:14.502Z,22.20
2018-08-13T11:13:42.089Z,22.30
2018-08-13T11:16:09.611Z,22.40
2018-08-13T11:18:37.118Z,22.40
2018-08-13T11:21:04.715Z,22.40
2018-08-13T11:23:32.229Z,22.50
2018-08-13T11:25:59.833Z,22.50
2018-08-13T11:28:27.639Z,22.40
2018-08-13T11:30:55.657Z,22.30
2018-08-13T11:33:23.243Z,22.60
2018-08-13T11:35:50.755Z,22.60
2018-08-13T11:38:18.349Z,22.50
2018-08-13T11:40:45.997Z,22.40
2018-08-13T11:43:13.479Z,22.30
2018-08-13T11:45:41.269Z,22.50
2018-08-13T11:48:09.278Z,22.60
2018-08-13T11:50:36.841Z,23.00
2018-08-13T11:53:04.423Z,23.40
2018-08-13T11:55:31.957Z,23.30
2018-08-13T11:57:59.485Z,23.50
2018-08-13T12:00:27.033Z,23.30
2018-08-13T12:02:54.575Z,23.30
2018-08-13T12:05:22.147Z,23.10
2018-08-13T12:07:49.733Z,22.80
2018-08-13T12:10:17.308Z,22.60
2018-08-13T12:12:45.292Z,22.40
2018-08-13T12:15:13.532Z,22.20
2018-08-13T12:17:41.536Z,22.00
2018-08-13T12:20:19.214Z,22.00
2018-08-13T12:22:47.184Z,22.40
2018-08-13T12:25:19.326Z,23.10
2018-08-13T12:27:46.902Z,23.70
2018-08-13T12:30:14.532Z,24.30
2018-08-13T12:32:42.074Z,24.50
2018-08-13T12:35:09.682Z,24.10
2018-08-13T12:37:37.208Z,23.80
2018-08-13T12:40:07.266Z,23.60
2018-08-13T12:42:34.915Z,23.50
2018-08-13T12:45:02.501Z,23.20
2018-08-13T12:47:30.074Z,23.10
2018-08-13T12:49:57.586Z,22.90
2018-08-13T12:52:25.168Z,22.90
2018-08-13T12:54:52.679Z,22.80
2018-08-13T12:57:20.205Z,22.60
2018-08-13T12:59:47.740Z,22.60
2018-08-13T13:02:15.246Z,22.50
2018-08-13T13:04:42.814Z,22.40
2018-08-13T13:07:10.398Z,22.20
2018-08-13T13:09:37.900Z,22.10
2018-08-13T13:12:05.468Z,22.20
2018-08-13T13:14:33.000Z,22.10
2018-08-13T13:17:00.552Z,21.90
2018-08-13T13:19:28.074Z,22.00
2018-08-13T13:21:55.612Z,22.20
2018-08-13T13:24:23.163Z,23.00
2018-08-13T13:26:50.913Z,23.40
2018-08-13T13:29:18.412Z,23.80
2018-08-13T13:31:45.930Z,24.20
2018-08-13T13:34:13.458Z,24.90
2018-08-13T13:36:41.129Z,25.10
2018-08-13T13:39:08.979Z,24.80
2018-08-13T13:41:36.603Z,24.70
2018-08-13T13:44:04.222Z,24.40
2018-08-13T13:46:31.821Z,24.20
2018-08-13T13:48:59.415Z,24.00
2018-08-13T13:51:27.065Z,23.70
2018-08-13T13:53:54.553Z,23.40
2018-08-13T13:56:22.100Z,23.10
2018-08-13T13:58:49.604Z,23.00
2018-08-13T14:01:17.246Z,22.80
2018-08-13T14:03:45.794Z,22.90
2018-08-13T14:06:13.318Z,22.80
2018-08-13T14:08:40.816Z,22.70
2018-08-13T14:11:08.426Z,22.60
2018-08-13T14:13:35.992Z,22.50
2018-08-13T14:16:03.646Z,22.30
2018-08-13T14:18:31.256Z,22.30
2018-08-13T14:20:58.786Z,22.10
2018-08-13T14:23:26.392Z,22.00
2018-08-13T14:25:54.390Z,21.90
2018-08-13T14:28:22.262Z,21.80
2018-08-13T14:30:49.910Z,21.60
2018-08-13T14:33:17.636Z,21.40
2018-08-13T14:35:45.376Z,21.10
2018-08-13T14:38:13.050Z,20.80
2018-08-13T14:40:40.807Z,20.50
2018-08-13T14:43:08.330Z,20.30
2018-08-13T14:45:35.974Z,20.10
2018-08-13T14:48:03.634Z,20.10
2018-08-13T14:50:31.220Z,20.20
2018-08-13T14:52:58.925Z,20.30
2018-08-13T14:55:26.546Z,20.40
2018-08-13T14:57:54.512Z,20.50
2018-08-13T15:00:25.528Z,20.50
2018-08-13T15:02:54.070Z,20.50
2018-08-13T15:05:21.820Z,20.60
2018-08-13T15:07:49.403Z,20.60
2018-08-13T15:10:20.696Z,20.60
2018-08-13T15:12:48.416Z,20.70
2018-08-13T15:15:15.963Z,20.70
2018-08-13T15:17:43.567Z,20.70
2018-08-13T15:20:16.113Z,20.70
2018-08-13T15:22:43.715Z,20.60
2018-08-13T15:25:11.285Z,20.60
2018-08-13T15:27:39.058Z,20.60
2018-08-13T15:30:10.691Z,20.70
2018-08-13T15:32:38.272Z,20.80
2018-08-13T15:35:06.243Z,21.20
2018-08-13T15:37:33.781Z,21.40
2018-08-13T15:40:01.415Z,21.50
2018-08-13T15:42:29.018Z,21.60
2018-08-13T15:44:56.903Z,21.70
2018-08-13T15:47:24.438Z,22.10
2018-08-13T15:49:52.009Z,22.20
2018-08-13T15:52:19.631Z,22.60
2018-08-13T15:54:47.166Z,23.60
2018-08-13T15:57:14.689Z,24.60
2018-08-13T15:59:42.289Z,25.10
2018-08-13T16:02:09.899Z,25.50
2018-08-13T16:04:37.463Z,26.10
2018-08-13T16:07:06.995Z,26.40
2018-08-13T16:09:34.589Z,27.00
2018-08-13T16:12:02.203Z,27.40
2018-08-13T16:14:29.754Z,27.80
2018-08-13T16:16:57.314Z,27.60
2018-08-13T16:19:24.963Z,28.00
2018-08-13T16:21:52.557Z,28.30
2018-08-13T16:24:20.357Z,28.50
2018-08-13T16:26:48.496Z,28.70
2018-08-13T16:29:15.991Z,28.60
2018-08-13T16:31:43.665Z,27.80
2018-08-13T16:34:11.339Z,27.30
2018-08-13T16:36:39.127Z,26.50
2018-08-13T16:39:08.635Z,26.00
2018-08-13T16:41:36.416Z,25.60
2018-08-13T16:44:04.037Z,25.20
2018-08-13T16:46:31.953Z,24.80
2018-08-13T16:48:59.776Z,24.40
2018-08-13T16:51:27.417Z,24.10
2018-08-13T16:53:59.011Z,23.80
2018-08-13T16:56:26.741Z,23.60
2018-08-13T16:58:54.293Z,23.40
2018-08-13T17:01:22.022Z,23.70
2018-08-13T17:03:50.481Z,24.40
2018-08-13T17:06:17.963Z,24.90
2018-08-13T17:08:45.677Z,25.50
2018-08-13T17:11:13.433Z,26.20
2018-08-13T17:13:41.100Z,26.50
2018-08-13T17:16:09.253Z,26.50
2018-08-13T17:18:36.845Z,25.70
2018-08-13T17:21:04.512Z,25.10
2018-08-13T17:23:32.092Z,24.50
2018-08-13T17:25:59.673Z,24.10
2018-08-13T17:28:27.295Z,23.70
2018-08-13T17:30:54.879Z,23.50
2018-08-13T17:33:22.455Z,23.30
2018-08-13T17:35:50.100Z,23.10
2018-08-13T17:38:17.681Z,22.90
2018-08-13T17:40:45.263Z,22.80
2018-08-13T17:43:13.109Z,22.70
2018-08-13T17:45:40.647Z,22.50
2018-08-13T17:48:09.108Z,22.40
2018-08-13T17:50:36.792Z,22.40
2018-08-13T17:53:05.298Z,22.30
2018-08-13T17:55:32.930Z,22.40
2018-08-13T17:58:00.666Z,22.40
2018-08-13T18:00:28.231Z,22.30
2018-08-13T18:02:55.909Z,22.30
2018-08-13T18:05:24.737Z,22.30
2018-08-13T18:07:52.933Z,22.30
2018-08-13T18:10:26.994Z,22.10
2018-08-13T18:12:55.522Z,22.10
2018-08-13T18:15:23.150Z,22.00
2018-08-13T18:17:50.798Z,22.10
2018-08-13T18:20:18.418Z,22.00
2018-08-13T18:22:45.943Z,22.00
2018-08-13T18:25:14.204Z,21.90
2018-08-13T18:27:43.070Z,22.00
2018-08-13T18:30:13.168Z,21.90
2018-08-13T18:32:40.764Z,21.90
2018-08-13T18:35:08.497Z,21.80
2018-08-13T18:37:36.137Z,21.70
2018-08-13T18:40:05.827Z,21.60
2018-08-13T18:42:37.865Z,21.40
2018-08-13T18:45:08.538Z,21.30
2018-08-13T18:47:36.159Z,21.30
2018-08-13T18:50:05.196Z,21.20
2018-08-13T18:52:32.878Z,21.20
2018-08-13T18:55:00.574Z,21.10
2018-08-13T18:57:28.459Z,21.00
2018-08-13T18:59:56.569Z,21.00
2018-08-13T19:02:24.184Z,20.90
2018-08-13T19:04:51.933Z,20.90
2018-08-13T19:07:19.700Z,20.90
2018-08-13T19:09:48.046Z,20.80
2018-08-13T19:12:15.652Z,20.80
2018-08-13T19:14:43.280Z,20.70
2018-08-13T19:17:11.064Z,20.70
2018-08-13T19:19:38.847Z,20.70
2018-08-13T19:22:06.632Z,20.70
2018-08-13T19:24:34.214Z,20.60
2018-08-13T19:27:01.771Z,20.60
2018-08-13T19:29:29.377Z,20.50
2018-08-13T19:31:56.992Z,20.50
2018-08-13T19:34:24.580Z,20.40
2018-08-13T19:36:52.283Z,20.40
2018-08-13T19:39:19.840Z,20.30
2018-08-13T19:41:47.526Z,20.10
2018-08-13T19:44:15.144Z,20.10
2018-08-13T19:46:42.673Z,20.10
2018-08-13T19:49:10.307Z,20.00
2018-08-13T19:51:37.960Z,20.00
2018-08-13T19:54:05.570Z,20.00
2018-08-13T19:56:33.082Z,19.90
2018-08-13T19:59:00.650Z,19.90
2018-08-13T20:01:28.206Z,19.80
2018-08-13T20:03:55.983Z,19.70
2018-08-13T20:06:23.596Z,19.70
2018-08-13T20:08:51.253Z,19.60
2018-08-13T20:11:18.862Z,19.60
2018-08-13T20:13:46.659Z,19.60
2018-08-13T20:16:14.217Z,19.60
2018-08-13T20:18:42.314Z,19.50
2018-08-13T20:21:10.083Z,19.50
2018-08-13T20:23:37.768Z,19.50
2018-08-13T20:26:05.497Z,19.50
2018-08-13T20:28:33.125Z,19.40
2018-08-13T20:31:00.764Z,19.40
2018-08-13T20:33:28.602Z,19.40
2018-08-13T20:35:56.202Z,19.30
2018-08-13T20:38:23.977Z,19.30
2018-08-13T20:40:51.783Z,19.30
2018-08-13T20:43:19.500Z,19.30
2018-08-13T20:45:47.150Z,19.20
2018-08-13T20:48:14.801Z,19.20
2018-08-13T20:50:42.503Z,19.20
2018-08-13T20:53:10.201Z,19.20
2018-08-13T20:55:38.005Z,19.10
2018-08-13T20:58:05.692Z,19.00
2018-08-13T21:00:33.460Z,19.00
2018-08-13T21:03:01.141Z,18.90
2018-08-13T21:05:28.996Z,18.90
2018-08-13T21:07:56.636Z,18.90
2018-08-13T21:10:24.899Z,18.90
2018-08-13T21:12:52.638Z,18.80
2018-08-13T21:15:20.496Z,18.80
2018-08-13T21:17:48.171Z,18.70
2018-08-13T21:20:24.959Z,18.70
2018-08-13T21:22:52.831Z,18.70
2018-08-13T21:25:20.496Z,18.60
2018-08-13T21:27:48.117Z,18.60
2018-08-13T21:30:15.714Z,18.50
2018-08-13T21:32:43.753Z,18.50
2018-08-13T21:35:14.894Z,18.40
2018-08-13T21:37:42.454Z,18.50
2018-08-13T21:40:10.001Z,18.40
2018-08-13T21:42:37.618Z,18.40
2018-08-13T21:45:06.041Z,18.40
2018-08-13T21:47:33.641Z,18.40
2018-08-13T21:50:01.211Z,18.30
2018-08-13T21:52:28.751Z,18.30
2018-08-13T21:54:56.293Z,18.30
2018-08-13T21:57:24.576Z,18.20
2018-08-13T21:59:53.161Z,18.20
2018-08-13T22:02:20.751Z,18.10
2018-08-13T22:04:48.289Z,18.10
2018-08-13T22:07:15.813Z,18.10
2018-08-13T22:09:43.445Z,18.10
2018-08-13T22:12:18.206Z,18.10
2018-08-13T22:14:45.891Z,18.10
2018-08-13T22:17:13.477Z,18.10
2018-08-13T22:19:41.045Z,18.10
2018-08-13T22:22:08.769Z,18.10
2018-08-13T22:24:47.549Z,18.00
2018-08-13T22:27:15.152Z,18.00
2018-08-13T22:29:42.740Z,18.00
2018-08-13T22:32:10.393Z,17.90
2018-08-13T22:34:38.186Z,17.90
2018-08-13T22:37:05.785Z,17.90
2018-08-13T22:39:33.377Z,17.90
2018-08-13T22:42:00.943Z,17.90
2018-08-13T22:44:28.501Z,17.90
2018-08-13T22:46:56.021Z,17.90
2018-08-13T22:49:23.533Z,17.80
2018-08-13T22:51:51.062Z,17.80
2018-08-13T22:54:18.621Z,17.80
2018-08-13T22:56:46.179Z,17.80
2018-08-13T22:59:13.740Z,17.80
2018-08-13T23:01:41.338Z,17.80
2018-08-13T23:04:08.940Z,17.70
2018-08-13T23:06:36.519Z,17.70
2018-08-13T23:09:07.547Z,17.70
2018-08-13T23:11:35.033Z,17.70
2018-08-13T23:14:02.637Z,17.70
2018-08-13T23:16:30.197Z,17.70
2018-08-13T23:18:57.709Z,17.60
2018-08-13T23:21:25.209Z,17.60
2018-08-13T23:23:52.731Z,17.60
2018-08-13T23:26:20.287Z,17.60
2018-08-13T23:28:47.801Z,17.60
2018-08-13T23:31:15.365Z,17.60
2018-08-13T23:33:42.875Z,17.60
2018-08-13T23:36:10.381Z,17.50
2018-08-13T23:38:37.897Z,17.50
2018-08-13T23:41:05.925Z,17.60
2018-08-13T23:43:33.509Z,17.50
2018-08-13T23:46:01.119Z,17.50
2018-08-13T23:48:28.686Z,17.50
2018-08-13T23:50:56.378Z,17.50
2018-08-13T23:53:23.951Z,17.50
2018-08-13T23:55:51.493Z,17.50
2018-08-13T23:58:19.085Z,17.50
